createdAt,value
2018-03-23T00:00:39.783Z,97686.39
2018-03-23T00:03:07.571Z,97679.09
2018-03-23T00:05:35.466Z,97674.45
2018-03-23T00:08:03.392Z,97672.77
2018-03-23T00:10:31.225Z,97673.42
2018-03-23T00:12:58.988Z,97671.33
2018-03-23T00:15:26.570Z,97672.28
2018-03-23T00:17:54.197Z,97669.48
2018-03-23T00:20:21.788Z,97669.13
2018-03-23T00:22:49.358Z,97667.16
2018-03-23T00:25:17.022Z,97668.06
2018-03-23T00:27:44.726Z,97657.66
2018-03-23T00:30:12.979Z,97654.94
2018-03-23T00:32:40.552Z,97663.16
2018-03-23T00:35:08.161Z,97660.23
2018-03-23T00:37:35.716Z,97652.98
2018-03-23T00:40:03.403Z,97656.11
2018-03-23T00:42:31.621Z,97646.37
2018-03-23T00:44:59.604Z,97642.89
2018-03-23T00:47:27.147Z,97647.73
2018-03-23T00:49:54.746Z,97644.33
2018-03-23T00:52:22.527Z,97643.53
2018-03-23T00:54:50.328Z,97637.83
2018-03-23T00:57:18.774Z,97635.05
2018-03-23T00:59:46.586Z,97627.35
2018-03-23T01:02:14.392Z,97637.13
2018-03-23T01:04:42.073Z,97641.09
2018-03-23T01:07:09.662Z,97631.24
2018-03-23T01:09:37.813Z,97628.94
2018-03-23T01:12:05.625Z,97620.80
2018-03-23T01:14:33.382Z,97620.89
2018-03-23T01:17:01.058Z,97628.27
2018-03-23T01:19:28.864Z,97627.48
2018-03-23T01:21:56.520Z,97616.67
2018-03-23T01:24:24.194Z,97617.06
2018-03-23T01:26:51.911Z,97615.16
2018-03-23T01:29:19.606Z,97617.09
2018-03-23T01:31:47.292Z,97609.73
2018-03-23T01:34:15.717Z,97610.09
2018-03-23T01:36:43.409Z,97611.84
2018-03-23T01:39:11.016Z,97610.56
2018-03-23T01:41:38.751Z,97609.53
2018-03-23T01:44:06.394Z,97603.70
2018-03-23T01:46:34.007Z,97607.02
2018-03-23T01:49:01.603Z,97601.03
2018-03-23T01:51:29.196Z,97605.47
2018-03-23T01:53:56.890Z,97602.20
2018-03-23T01:56:24.494Z,97605.27
2018-03-23T01:58:52.026Z,97613.70
2018-03-23T02:01:19.722Z,97602.03
2018-03-23T02:03:47.581Z,97598.80
2018-03-23T02:06:15.128Z,97597.72
2018-03-23T02:08:43.035Z,97592.33
2018-03-23T02:11:11.843Z,97581.09
2018-03-23T02:13:39.523Z,97583.35
2018-03-23T02:16:07.215Z,97576.11
2018-03-23T02:18:34.745Z,97586.66
2018-03-23T02:21:02.417Z,97582.86
2018-03-23T02:23:29.964Z,97577.66
2018-03-23T02:25:57.513Z,97565.86
2018-03-23T02:28:25.226Z,97564.11
2018-03-23T02:30:52.795Z,97567.51
2018-03-23T02:33:20.584Z,97563.14
2018-03-23T02:35:48.214Z,97563.42
2018-03-23T02:38:15.863Z,97564.67
2018-03-23T02:40:43.509Z,97558.27
2018-03-23T02:43:11.258Z,97559.14
2018-03-23T02:45:38.985Z,97559.23
2018-03-23T02:48:06.496Z,97556.95
2018-03-23T02:50:34.436Z,97554.77
2018-03-23T02:53:02.330Z,97559.03
2018-03-23T02:55:30.023Z,97559.56
2018-03-23T02:57:58.386Z,97558.83
2018-03-23T03:00:26.071Z,97563.34
2018-03-23T03:02:54.110Z,97559.35
2018-03-23T03:05:21.744Z,97548.28
2018-03-23T03:07:49.401Z,97550.22
2018-03-23T03:10:17.214Z,97547.53
2018-03-23T03:12:45.648Z,97550.38
2018-03-23T03:15:13.322Z,97549.13
2018-03-23T03:17:40.852Z,97552.20
2018-03-23T03:20:08.469Z,97549.13
2018-03-23T03:22:36.121Z,97557.31
2018-03-23T03:25:03.958Z,97554.06
2018-03-23T03:27:31.707Z,97553.75
2018-03-23T03:30:00.500Z,97546.81
2018-03-23T03:32:28.256Z,97546.71
2018-03-23T03:34:55.956Z,97545.13
2018-03-23T03:37:23.851Z,97542.81
2018-03-23T03:39:51.507Z,97544.41
2018-03-23T03:42:19.278Z,97537.59
2018-03-23T03:44:47.527Z,97532.32
2018-03-23T03:47:15.782Z,97536.74
2018-03-23T03:49:43.699Z,97532.42
2018-03-23T03:52:11.514Z,97534.13
2018-03-23T03:54:39.088Z,97524.76
2018-03-23T03:57:06.827Z,97531.92
2018-03-23T03:59:35.251Z,97525.14
2018-03-23T04:02:02.807Z,97526.92
2018-03-23T04:04:30.522Z,97522.81
2018-03-23T04:06:58.057Z,97521.11
2018-03-23T04:09:25.881Z,97521.00
2018-03-23T04:11:53.497Z,97524.98
2018-03-23T04:14:21.335Z,97515.80
2018-03-23T04:16:48.908Z,97517.21
2018-03-23T04:19:16.703Z,97513.08
2018-03-23T04:21:44.431Z,97516.72
2018-03-23T04:24:12.122Z,97515.77
2018-03-23T04:26:39.853Z,97518.98
2018-03-23T04:29:07.451Z,97519.38
2018-03-23T04:31:35.075Z,97512.12
2018-03-23T04:34:02.637Z,97506.95
2018-03-23T04:36:30.486Z,97500.17
2018-03-23T04:38:58.162Z,97500.97
2018-03-23T04:41:25.798Z,97497.97
2018-03-23T04:43:54.067Z,97505.25
2018-03-23T04:46:21.739Z,97500.51
2018-03-23T04:48:49.293Z,97496.52
2018-03-23T04:51:17.072Z,97490.23
2018-03-23T04:53:44.601Z,97485.37
2018-03-23T04:56:12.331Z,97487.52
2018-03-23T04:58:40.013Z,97477.72
2018-03-23T05:01:07.751Z,97478.34
2018-03-23T05:03:35.512Z,97469.41
2018-03-23T05:06:03.686Z,97470.21
2018-03-23T05:08:31.215Z,97467.98
2018-03-23T05:10:58.764Z,97470.86
2018-03-23T05:13:26.368Z,97469.27
2018-03-23T05:15:54.057Z,97466.08
2018-03-23T05:18:21.809Z,97476.92
2018-03-23T05:20:49.528Z,97470.37
2018-03-23T05:23:17.268Z,97474.95
2018-03-23T05:25:44.834Z,97469.16
2018-03-23T05:28:12.446Z,97472.77
2018-03-23T05:30:40.033Z,97472.19
2018-03-23T05:33:07.768Z,97473.27
2018-03-23T05:35:35.498Z,97466.91
2018-03-23T05:38:03.091Z,97474.41
2018-03-23T05:40:30.893Z,97476.84
2018-03-23T05:42:58.615Z,97480.95
2018-03-23T05:45:26.214Z,97478.83
2018-03-23T05:47:54.123Z,97466.52
2018-03-23T05:50:21.963Z,97477.20
2018-03-23T05:52:50.442Z,97485.75
2018-03-23T05:55:18.072Z,97478.69
2018-03-23T05:57:45.797Z,97482.41
2018-03-23T06:00:13.356Z,97480.78
2018-03-23T06:02:41.027Z,97471.48
2018-03-23T06:05:08.620Z,97480.86
2018-03-23T06:07:36.581Z,97474.95
2018-03-23T06:10:04.343Z,97472.95
2018-03-23T06:12:31.921Z,97471.36
2018-03-23T06:14:59.533Z,97471.89
2018-03-23T06:17:27.313Z,97468.95
2018-03-23T06:19:54.856Z,97466.94
2018-03-23T06:22:22.404Z,97460.52
2018-03-23T06:24:50.033Z,97456.01
2018-03-23T06:27:17.558Z,97456.92
2018-03-23T06:29:45.324Z,97449.20
2018-03-23T06:32:12.908Z,97446.52
2018-03-23T06:34:40.518Z,97447.55
2018-03-23T06:37:08.862Z,97446.34
2018-03-23T06:39:36.399Z,97442.55
2018-03-23T06:42:04.160Z,97441.61
2018-03-23T06:44:31.692Z,97449.02
2018-03-23T06:46:59.386Z,97445.04
2018-03-23T06:49:26.992Z,97442.02
2018-03-23T06:51:54.738Z,97441.53
2018-03-23T06:54:22.527Z,97440.73
2018-03-23T06:56:50.321Z,97435.92
2018-03-23T06:59:17.932Z,97442.86
2018-03-23T07:01:46.144Z,97441.55
2018-03-23T07:04:13.832Z,97439.41
2018-03-23T07:06:41.568Z,97438.41
2018-03-23T07:09:09.123Z,97438.41
2018-03-23T07:11:36.837Z,97431.48
2018-03-23T07:14:16.600Z,97437.66
2018-03-23T07:16:44.376Z,97443.95
2018-03-23T07:19:12.131Z,97444.74
2018-03-23T07:21:39.712Z,97436.99
2018-03-23T07:24:07.518Z,97439.58
2018-03-23T07:26:35.582Z,97429.82
2018-03-23T07:29:03.391Z,97436.73
2018-03-23T07:31:30.932Z,97437.41
2018-03-23T07:33:58.590Z,97432.07
2018-03-23T07:36:26.651Z,97441.02
2018-03-23T07:38:54.486Z,97436.56
2018-03-23T07:41:22.272Z,97435.27
2018-03-23T07:43:49.968Z,97431.34
2018-03-23T07:46:17.656Z,97435.03
2018-03-23T07:48:45.516Z,97439.66
2018-03-23T07:51:13.117Z,97440.77
2018-03-23T07:53:41.149Z,97430.63
2018-03-23T07:56:08.771Z,97435.23
2018-03-23T07:58:36.480Z,97434.32
2018-03-23T08:01:04.172Z,97430.49
2018-03-23T08:03:31.690Z,97436.30
2018-03-23T08:05:59.221Z,97444.17
2018-03-23T08:08:27.173Z,97440.80
2018-03-23T08:10:54.835Z,97439.02
2018-03-23T08:13:22.463Z,97438.86
2018-03-23T08:15:50.143Z,97436.39
2018-03-23T08:18:18.910Z,97432.38
2018-03-23T08:20:46.865Z,97426.54
2018-03-23T08:23:14.548Z,97432.64
2018-03-23T08:25:42.213Z,97429.77
2018-03-23T08:28:09.926Z,97424.92
2018-03-23T08:30:37.592Z,97416.91
2018-03-23T08:33:05.203Z,97406.86
2018-03-23T08:35:32.757Z,97400.80
2018-03-23T08:38:00.553Z,97404.55
2018-03-23T08:40:28.276Z,97391.16
2018-03-23T08:42:55.937Z,97384.55
2018-03-23T08:45:23.582Z,97387.66
2018-03-23T08:47:51.306Z,97386.37
2018-03-23T08:50:19.040Z,97385.18
2018-03-23T08:52:46.918Z,97377.63
2018-03-23T08:55:14.622Z,97378.16
2018-03-23T08:57:42.146Z,97378.31
2018-03-23T09:00:09.936Z,97381.22
2018-03-23T09:02:37.599Z,97379.98
2018-03-23T09:05:05.382Z,97372.13
2018-03-23T09:07:34.011Z,97371.36
2018-03-23T09:10:01.716Z,97370.98
2018-03-23T09:12:29.496Z,97367.66
2018-03-23T09:14:57.841Z,97368.34
2018-03-23T09:17:25.542Z,97367.31
2018-03-23T09:19:53.212Z,97365.76
2018-03-23T09:22:20.837Z,97359.73
2018-03-23T09:24:48.548Z,97357.52
2018-03-23T09:27:16.187Z,97349.67
2018-03-23T09:29:44.182Z,97348.62
2018-03-23T09:32:11.741Z,97352.89
2018-03-23T09:34:39.262Z,97352.15
2018-03-23T09:37:06.890Z,97352.77
2018-03-23T09:39:35.126Z,97350.50
2018-03-23T09:42:02.710Z,97341.84
2018-03-23T09:44:30.292Z,97344.44
2018-03-23T09:46:58.232Z,97341.33
2018-03-23T09:49:25.758Z,97345.09
2018-03-23T09:51:54.971Z,97339.27
2018-03-23T09:54:22.731Z,97336.50
2018-03-23T09:56:50.252Z,97336.75
2018-03-23T09:59:17.793Z,97336.25
2018-03-23T10:01:46.837Z,97330.85
2018-03-23T10:04:14.571Z,97329.25
2018-03-23T10:06:43.113Z,97317.52
2018-03-23T10:09:10.646Z,97313.08
2018-03-23T10:11:38.373Z,97318.95
2018-03-23T10:14:06.251Z,97317.89
2018-03-23T10:16:33.958Z,97312.64
2018-03-23T10:19:01.788Z,97306.02
2018-03-23T10:21:29.436Z,97304.22
2018-03-23T10:23:56.968Z,97305.95
2018-03-23T10:26:24.626Z,97311.54
2018-03-23T10:28:52.358Z,97310.86
2018-03-23T10:31:20.099Z,97303.19
2018-03-23T10:33:47.758Z,97308.92
2018-03-23T10:36:15.327Z,97301.03
2018-03-23T10:38:42.901Z,97298.00
2018-03-23T10:41:10.696Z,97299.92
2018-03-23T10:43:38.386Z,97291.77
2018-03-23T10:46:06.259Z,97293.73
2018-03-23T10:48:33.858Z,97285.26
2018-03-23T10:51:01.624Z,97295.71
2018-03-23T10:53:29.444Z,97292.63
2018-03-23T10:55:57.056Z,97281.78
2018-03-23T10:58:24.870Z,97277.86
2018-03-23T11:00:58.096Z,97279.70
2018-03-23T11:03:25.757Z,97277.03
2018-03-23T11:05:53.512Z,97270.73
2018-03-23T11:08:21.917Z,97258.39
2018-03-23T11:10:49.588Z,97265.08
2018-03-23T11:13:17.366Z,97257.83
2018-03-23T11:15:45.102Z,97261.16
2018-03-23T11:18:12.803Z,97255.88
2018-03-23T11:20:40.444Z,97254.80
2018-03-23T11:23:08.061Z,97256.50
2018-03-23T11:25:36.281Z,97250.41
2018-03-23T11:28:03.917Z,97254.14
2018-03-23T11:30:31.509Z,97248.14
2018-03-23T11:32:59.051Z,97241.14
2018-03-23T11:35:26.625Z,97235.20
2018-03-23T11:37:54.293Z,97239.22
2018-03-23T11:40:21.922Z,97237.20
2018-03-23T11:42:49.888Z,97228.09
2018-03-23T11:45:17.736Z,97230.34
2018-03-23T11:47:45.356Z,97229.39
2018-03-23T11:50:13.228Z,97221.83
2018-03-23T11:52:40.961Z,97213.09
2018-03-23T11:55:08.478Z,97217.38
2018-03-23T11:57:36.053Z,97206.32
2018-03-23T12:00:03.723Z,97202.28
2018-03-23T12:02:31.336Z,97205.04
2018-03-23T12:04:59.080Z,97202.42
2018-03-23T12:07:27.028Z,97201.09
2018-03-23T12:09:54.590Z,97197.00
2018-03-23T12:12:22.332Z,97201.86
2018-03-23T12:14:50.176Z,97208.27
2018-03-23T12:17:17.906Z,97213.95
2018-03-23T12:19:45.743Z,97211.47
2018-03-23T12:22:13.335Z,97214.81
2018-03-23T12:24:41.020Z,97209.66
2018-03-23T12:27:08.896Z,97207.57
2018-03-23T12:29:37.291Z,97199.30
2018-03-23T12:32:04.942Z,97200.48
2018-03-23T12:34:32.667Z,97198.75
2018-03-23T12:37:01.117Z,97183.80
2018-03-23T12:39:28.771Z,97187.36
2018-03-23T12:41:56.437Z,97182.75
2018-03-23T12:44:24.067Z,97176.00
2018-03-23T12:46:51.616Z,97173.18
2018-03-23T12:49:19.195Z,97175.72
2018-03-23T12:51:46.811Z,97165.82
2018-03-23T12:54:15.053Z,97154.48
2018-03-23T12:56:42.820Z,97154.81
2018-03-23T12:59:10.435Z,97146.81
2018-03-23T13:01:38.064Z,97146.24
2018-03-23T13:04:05.736Z,97147.02
2018-03-23T13:06:33.451Z,97135.44
2018-03-23T13:09:01.491Z,97138.69
2018-03-23T13:11:29.300Z,97139.02
2018-03-23T13:13:57.015Z,97133.27
2018-03-23T13:16:24.686Z,97131.99
2018-03-23T13:18:52.318Z,97126.66
2018-03-23T13:21:19.912Z,97135.36
2018-03-23T13:23:47.708Z,97124.66
2018-03-23T13:26:15.247Z,97122.02
2018-03-23T13:28:42.947Z,97118.80
2018-03-23T13:31:10.850Z,97116.68
2018-03-23T13:33:38.394Z,97112.80
2018-03-23T13:36:06.119Z,97113.90
2018-03-23T13:38:33.712Z,97109.84
2018-03-23T13:41:01.446Z,97115.19
2018-03-23T13:43:28.976Z,97107.38
2018-03-23T13:45:56.540Z,97103.77
2018-03-23T13:48:24.390Z,97092.83
2018-03-23T13:50:52.005Z,97099.97
2018-03-23T13:53:20.393Z,97098.16
2018-03-23T13:55:47.957Z,97092.47
2018-03-23T13:58:15.652Z,97091.97
2018-03-23T14:00:48.947Z,97102.98
2018-03-23T14:03:16.586Z,97097.34
2018-03-23T14:05:44.367Z,97092.22
2018-03-23T14:08:12.341Z,97091.48
2018-03-23T14:10:40.177Z,97086.49
2018-03-23T14:13:07.967Z,97082.70
2018-03-23T14:15:36.408Z,97083.62
2018-03-23T14:18:04.207Z,97078.71
2018-03-23T14:20:31.855Z,97070.45
2018-03-23T14:22:59.575Z,97070.50
2018-03-23T14:25:27.389Z,97070.66
2018-03-23T14:27:55.047Z,97069.09
2018-03-23T14:30:23.020Z,97066.73
2018-03-23T14:32:50.628Z,97064.86
2018-03-23T14:35:18.166Z,97064.50
2018-03-23T14:37:46.170Z,97063.20
2018-03-23T14:40:13.982Z,97056.47
2018-03-23T14:42:41.517Z,97057.14
2018-03-23T14:45:09.167Z,97050.72
2018-03-23T14:47:37.083Z,97054.05
2018-03-23T14:50:04.931Z,97047.66
2018-03-23T14:52:32.632Z,97045.17
2018-03-23T14:55:00.221Z,97045.34
2018-03-23T14:57:27.972Z,97039.77
2018-03-23T14:59:55.709Z,97039.84
2018-03-23T15:02:23.273Z,97039.78
2018-03-23T15:04:50.815Z,97026.95
2018-03-23T15:07:18.343Z,97027.01
2018-03-23T15:09:46.026Z,97020.84
2018-03-23T15:12:13.698Z,97013.94
2018-03-23T15:14:41.617Z,97011.70
2018-03-23T15:17:09.436Z,97012.22
2018-03-23T15:19:37.074Z,97012.87
2018-03-23T15:22:04.823Z,97014.23
2018-03-23T15:24:32.621Z,97012.82
2018-03-23T15:27:00.296Z,97006.77
2018-03-23T15:29:28.172Z,97012.62
2018-03-23T15:31:55.851Z,96999.53
2018-03-23T15:34:23.575Z,97006.64
2018-03-23T15:36:51.305Z,97003.59
2018-03-23T15:39:19.095Z,96995.20
2018-03-23T15:41:46.807Z,96988.58
2018-03-23T15:44:14.451Z,96983.31
2018-03-23T15:46:42.012Z,96974.15
2018-03-23T15:49:10.163Z,96978.58
2018-03-23T15:51:37.822Z,96980.28
2018-03-23T15:54:05.621Z,96982.30
2018-03-23T15:56:33.316Z,96977.88
2018-03-23T15:59:01.000Z,96972.47
2018-03-23T16:01:28.801Z,96973.00
2018-03-23T16:03:56.337Z,96969.45
2018-03-23T16:06:23.925Z,96970.46
2018-03-23T16:08:51.706Z,96962.80
2018-03-23T16:11:19.341Z,96965.20
2018-03-23T16:13:47.077Z,96960.25
2018-03-23T16:16:15.426Z,96962.16
2018-03-23T16:18:43.797Z,96959.77
2018-03-23T16:21:11.616Z,96961.34
2018-03-23T16:23:39.618Z,96962.77
2018-03-23T16:26:07.572Z,96958.70
2018-03-23T16:28:35.393Z,96964.27
2018-03-23T16:31:04.392Z,96970.05
2018-03-23T16:33:32.105Z,96973.40
2018-03-23T16:35:59.875Z,96962.28
2018-03-23T16:38:27.538Z,96961.95
2018-03-23T16:40:55.141Z,96951.69
2018-03-23T16:43:22.805Z,96954.95
2018-03-23T16:45:50.416Z,96951.05
2018-03-23T16:48:18.143Z,96950.69
2018-03-23T16:50:45.839Z,96952.78
2018-03-23T16:53:13.719Z,96954.23
2018-03-23T16:55:41.538Z,96946.61
2018-03-23T16:58:09.290Z,96943.56
2018-03-23T17:00:36.882Z,96954.19
2018-03-23T17:03:05.522Z,96954.39
2018-03-23T17:05:33.210Z,96948.48
2018-03-23T17:08:01.772Z,96947.05
2018-03-23T17:10:29.786Z,96949.86
2018-03-23T17:12:57.817Z,96955.65
2018-03-23T17:15:25.672Z,96946.55
2018-03-23T17:17:53.443Z,96947.90
2018-03-23T17:20:21.157Z,96942.97
2018-03-23T17:22:49.357Z,96941.00
2018-03-23T17:25:17.181Z,96944.31
2018-03-23T17:27:46.017Z,96940.05
2018-03-23T17:30:14.975Z,96943.13
2018-03-23T17:32:43.256Z,96939.08
2018-03-23T17:35:10.792Z,96939.09
2018-03-23T17:37:38.778Z,96934.44
2018-03-23T17:40:06.758Z,96937.28
2018-03-23T17:42:34.392Z,96940.73
2018-03-23T17:45:02.046Z,96933.73
2018-03-23T17:47:29.866Z,96935.06
2018-03-23T17:49:57.502Z,96939.28
2018-03-23T17:52:25.192Z,96932.81
2018-03-23T17:54:52.777Z,96942.24
2018-03-23T17:57:20.591Z,96940.67
2018-03-23T17:59:48.918Z,96935.59
2018-03-23T18:02:17.410Z,96932.66
2018-03-23T18:04:45.837Z,96935.80
2018-03-23T18:07:13.785Z,96939.16
2018-03-23T18:09:41.332Z,96932.52
2018-03-23T18:12:08.998Z,96936.66
2018-03-23T18:14:37.828Z,96939.68
2018-03-23T18:17:05.548Z,96932.62
2018-03-23T18:19:33.921Z,96927.23
2018-03-23T18:22:01.656Z,96932.78
2018-03-23T18:24:31.165Z,96930.41
2018-03-23T18:26:59.882Z,96924.80
2018-03-23T18:29:29.017Z,96937.88
2018-03-23T18:31:56.886Z,96932.51
2018-03-23T18:34:24.660Z,96943.64
2018-03-23T18:36:53.012Z,96938.08
2018-03-23T18:39:21.212Z,96932.89
2018-03-23T18:41:48.838Z,96935.06
2018-03-23T18:44:21.772Z,96928.13
2018-03-23T18:46:49.341Z,96934.70
2018-03-23T18:49:18.777Z,96932.44
2018-03-23T18:51:46.507Z,96931.76
2018-03-23T18:54:14.168Z,96932.97
2018-03-23T18:56:41.827Z,96927.89
2018-03-23T18:59:09.986Z,96933.39
2018-03-23T19:01:40.391Z,96927.52
2018-03-23T19:04:08.765Z,96918.55
2018-03-23T19:06:36.543Z,96923.78
2018-03-23T19:09:04.262Z,96923.84
2018-03-23T19:11:32.197Z,96925.80
2018-03-23T19:14:01.061Z,96922.14
2018-03-23T19:16:31.661Z,96924.61
2018-03-23T19:19:02.577Z,96914.00
2018-03-23T19:21:30.284Z,96912.16
2018-03-23T19:23:57.930Z,96904.19
2018-03-23T19:26:25.495Z,96913.00
2018-03-23T19:28:53.133Z,96909.20
2018-03-23T19:31:22.256Z,96907.07
2018-03-23T19:33:50.112Z,96908.22
2018-03-23T19:36:17.822Z,96908.72
2018-03-23T19:38:46.196Z,96907.25
2018-03-23T19:41:13.806Z,96908.48
2018-03-23T19:43:42.122Z,96899.75
2018-03-23T19:46:09.898Z,96900.20
2018-03-23T19:48:37.626Z,96901.44
2018-03-23T19:51:06.029Z,96897.44
2018-03-23T19:53:33.791Z,96904.38
2018-03-23T19:56:01.946Z,96901.51
2018-03-23T19:58:29.638Z,96898.08
2018-03-23T20:00:59.837Z,96902.78
2018-03-23T20:03:27.532Z,96897.28
2018-03-23T20:05:55.366Z,96897.97
2018-03-23T20:08:23.220Z,96893.72
2018-03-23T20:10:50.929Z,96887.08
2018-03-23T20:13:19.675Z,96896.34
2018-03-23T20:15:47.661Z,96898.09
2018-03-23T20:18:21.814Z,96888.30
2018-03-23T20:20:55.172Z,96880.85
2018-03-23T20:23:22.938Z,96879.87
2018-03-23T20:25:50.570Z,96877.91
2018-03-23T20:28:24.295Z,96877.15
2018-03-23T20:30:53.512Z,96876.63
2018-03-23T20:33:21.299Z,96876.31
2018-03-23T20:35:48.840Z,96880.86
2018-03-23T20:38:16.413Z,96885.70
2018-03-23T20:40:44.264Z,96878.64
2018-03-23T20:43:12.099Z,96875.78
2018-03-23T20:45:39.795Z,96870.40
2018-03-23T20:48:07.750Z,96869.13
2018-03-23T20:50:35.732Z,96874.72
2018-03-23T20:53:03.286Z,96874.48
2018-03-23T20:55:31.067Z,96873.05
2018-03-23T20:57:58.641Z,96875.19
2018-03-23T21:00:26.697Z,96869.64
2018-03-23T21:02:54.507Z,96874.20
2018-03-23T21:05:22.872Z,96867.20
2018-03-23T21:07:50.546Z,96870.47
2018-03-23T21:10:18.262Z,96864.86
2018-03-23T21:12:48.251Z,96860.64
2018-03-23T21:15:15.825Z,96859.86
2018-03-23T21:17:43.501Z,96859.50
2018-03-23T21:20:11.162Z,96856.30
2018-03-23T21:22:38.845Z,96852.93
2018-03-23T21:25:06.552Z,96841.01
2018-03-23T21:27:34.617Z,96837.77
2018-03-23T21:30:02.629Z,96838.52
2018-03-23T21:32:30.445Z,96838.66
2018-03-23T21:34:58.120Z,96837.89
2018-03-23T21:37:25.717Z,96840.83
2018-03-23T21:39:53.327Z,96831.75
2018-03-23T21:42:20.910Z,96835.11
2018-03-23T21:44:48.508Z,96833.59
2018-03-23T21:47:16.151Z,96831.01
2018-03-23T21:49:43.832Z,96825.17
2018-03-23T21:52:12.136Z,96829.75
2018-03-23T21:54:39.690Z,96827.75
2018-03-23T21:57:07.256Z,96822.50
2018-03-23T21:59:34.975Z,96816.81
2018-03-23T22:02:02.628Z,96824.42
2018-03-23T22:04:31.337Z,96815.97
2018-03-23T22:06:58.912Z,96815.08
2018-03-23T22:09:26.902Z,96811.83
2018-03-23T22:11:54.613Z,96817.41
2018-03-23T22:14:22.292Z,96817.44
2018-03-23T22:16:50.126Z,96811.25
2018-03-23T22:19:17.681Z,96803.16
2018-03-23T22:21:45.542Z,96801.84
2018-03-23T22:24:13.071Z,96799.12
2018-03-23T22:26:40.632Z,96791.72
2018-03-23T22:29:08.365Z,96785.98
2018-03-23T22:31:36.796Z,96786.67
2018-03-23T22:34:04.545Z,96783.31
2018-03-23T22:36:32.258Z,96778.45
2018-03-23T22:38:59.966Z,96781.61
2018-03-23T22:41:27.592Z,96774.77
2018-03-23T22:43:55.506Z,96778.59
2018-03-23T22:46:23.339Z,96774.09
2018-03-23T22:48:51.047Z,96774.72
2018-03-23T22:51:18.617Z,96769.96
2018-03-23T22:53:46.491Z,96763.49
2018-03-23T22:56:14.170Z,96766.36
2018-03-23T22:58:41.727Z,96756.02
2018-03-23T23:01:09.472Z,96746.84
2018-03-23T23:03:37.084Z,96746.03
2018-03-23T23:06:04.866Z,96752.84
2018-03-23T23:08:32.663Z,96744.91
2018-03-23T23:11:00.269Z,96748.97
2018-03-23T23:13:27.915Z,96751.63
2018-03-23T23:15:55.467Z,96747.67
2018-03-23T23:18:24.092Z,96741.81
2018-03-23T23:20:53.277Z,96737.80
2018-03-23T23:23:21.027Z,96736.08
2018-03-23T23:25:48.717Z,96736.57
2018-03-23T23:28:16.456Z,96730.91
2018-03-23T23:30:44.403Z,96731.45
2018-03-23T23:33:11.957Z,96724.41
2018-03-23T23:35:39.739Z,96723.75
2018-03-23T23:38:07.470Z,96718.83
2018-03-23T23:40:36.121Z,96714.05
2018-03-23T23:43:03.682Z,96705.77
2018-03-23T23:45:31.301Z,96705.80
2018-03-23T23:47:59.006Z,96699.02
2018-03-23T23:50:26.670Z,96700.63
2018-03-23T23:52:54.400Z,96701.81
2018-03-23T23:55:22.135Z,96697.31
2018-03-23T23:57:50.155Z,96693.30
